Terminal Aerodrome Forecast
Issued by NWS

Home | Current Version | Previous Version | Text Only | Print | Product List | Glossary On
Versions: 1 2 3 4 5 6 7 8 9 10 11 12 13 14
000
FTUS43 KIND 302320
TAFBMG
TAF
KBMG 302320Z 3100/3124 20005KT P6SM SCT250
     FM310600 20003KT 3SM BR SCT250
      TEMPO 3109/3112 1SM BR
     FM311400 22005KT P6SM SCT050 SCT250=

USA.gov is the U.S. government's official web portal to all federal, state and local government web resources and services.